createdAt,value
2018-07-31T00:00:02.767Z,20
2018-07-31T00:15:03.124Z,19.9
2018-07-31T00:30:02.515Z,19.7
2018-07-31T00:45:02.857Z,19.5
2018-07-31T01:00:03.211Z,19.6
2018-07-31T01:15:02.482Z,19.3
2018-07-31T01:30:02.877Z,19.4
2018-07-31T01:45:03.233Z,19.1
2018-07-31T02:00:02.554Z,19
2018-07-31T02:15:02.903Z,18.8
2018-07-31T02:30:02.427Z,18.8
2018-07-31T02:45:02.726Z,18.8
2018-07-31T03:00:03.106Z,18.6
2018-07-31T03:15:02.437Z,18.4
2018-07-31T03:30:02.865Z,18.4
2018-07-31T03:45:03.196Z,18.2
2018-07-31T04:00:02.501Z,18.2
2018-07-31T04:15:02.841Z,18.1
2018-07-31T04:30:03.348Z,18.2
2018-07-31T04:45:02.694Z,18.2
2018-07-31T05:00:02.991Z,18.5
2018-07-31T05:15:02.285Z,18.8
2018-07-31T05:30:02.886Z,19.1
2018-07-31T05:45:03.229Z,19.6
2018-07-31T06:00:02.570Z,20
2018-07-31T06:15:02.875Z,20.4
2018-07-31T06:30:02.340Z,20.6
2018-07-31T06:45:02.720Z,21.2
2018-07-31T07:00:02.994Z,21.4
2018-07-31T07:15:02.350Z,21.9
2018-07-31T07:30:02.747Z,22.6
2018-07-31T07:45:03.125Z,23.2
2018-07-31T08:00:02.467Z,24.2
2018-07-31T08:15:02.883Z,25.1
2018-07-31T08:30:02.347Z,26.8
2018-07-31T08:45:02.697Z,27.9
2018-07-31T09:00:02.969Z,28.6
2018-07-31T09:15:02.356Z,29.4
2018-07-31T09:30:02.771Z,30.3
2018-07-31T09:45:03.099Z,32
2018-07-31T10:00:02.378Z,32.8
2018-07-31T10:15:02.747Z,33.2
2018-07-31T10:30:03.208Z,33.4
2018-07-31T10:45:02.523Z,34
2018-07-31T11:00:02.968Z,34
2018-07-31T11:15:02.366Z,34.9
2018-07-31T11:30:02.777Z,34.8
2018-07-31T11:45:03.094Z,34.9
2018-07-31T12:00:02.384Z,33.6
2018-07-31T12:15:02.698Z,34.2
2018-07-31T12:30:03.100Z,34.8
2018-07-31T12:45:02.449Z,34.9
2018-07-31T13:00:02.827Z,36.1
2018-07-31T13:15:03.220Z,36.2
2018-07-31T13:30:02.638Z,36.2
2018-07-31T13:45:02.982Z,35.5
2018-07-31T14:00:02.295Z,35.5
2018-07-31T14:15:02.589Z,36.1
2018-07-31T14:30:02.976Z,35.1
2018-07-31T14:45:02.259Z,36.1
2018-07-31T15:00:02.625Z,34.2
2018-07-31T15:15:02.991Z,33.3
2018-07-31T15:30:02.394Z,33.3
2018-07-31T15:45:02.959Z,33.2
2018-07-31T16:00:02.260Z,33.4
2018-07-31T16:15:02.576Z,32.4
2018-07-31T16:30:02.978Z,31.5
2018-07-31T16:45:03.841Z,31.1
2018-07-31T17:00:03.180Z,30.7
2018-07-31T17:15:02.503Z,30.1
2018-07-31T17:30:02.895Z,29.4
2018-07-31T17:45:03.209Z,28.4
2018-07-31T18:00:02.556Z,27.6
2018-07-31T18:15:02.902Z,27.2
2018-07-31T18:30:03.900Z,26.2
2018-07-31T18:45:02.453Z,25.9
2018-07-31T19:00:02.807Z,25.1
2018-07-31T19:15:03.180Z,24.6
2018-07-31T19:30:02.576Z,24.3
2018-07-31T19:45:03.024Z,23.9
2018-07-31T20:00:02.370Z,23.8
2018-07-31T20:15:02.678Z,23.2
2018-07-31T20:30:03.202Z,23.8
2018-07-31T20:45:02.672Z,23
2018-07-31T21:00:03.008Z,22.7
2018-07-31T21:15:02.345Z,22.6
2018-07-31T21:30:02.966Z,22.1
2018-07-31T21:45:02.288Z,22
2018-07-31T22:00:02.677Z,21.9
2018-07-31T22:15:02.990Z,21.8
2018-07-31T22:30:02.516Z,21.5
2018-07-31T22:45:02.869Z,21.3
2018-07-31T23:00:03.302Z,21.1
2018-07-31T23:15:02.880Z,20.9
2018-07-31T23:30:02.488Z,20.8
2018-07-31T23:45:02.766Z,20.6
